Hill Air Force Base

Airport
ICAO code: 
KHIF
Summary
ICAO Region: 
NAM
Territory: 
Location: 
Ogden, Utah,
Elevation: 
4789 ft
Coordinates: 
Aerial View: 
41° 7' 25.84" N, 111° 58' 24.26" W
Airport CFIT: 
Altimeter Temperature Error Correction
Airport RE: 
Hot and High Operations
Metar
Observation
KHIF 020958Z AUTO 11012KT 10SM CLR 03/M03 A3029 RMK AO2 SLP246 T00341026
Station
Hill Air Force Base / Ogden
Date/Time
2021-12-02 09:58:00
Wind direction
110°
Wind speed
12 kts
Lowest cloud amount
n/a
Temperature
3.4°C
Dew point
-2.6°C
Humidity
64%
Weather condition
n/a

Description

Hill Air Force Base is a United States Air Force facility located in northern Utah, just south of the city of Ogden.

Climatology

Dry-summer continental climate (Köppen climate classification Dsa) a relatively rare form of the continental climate where a region experiences dry summers and wet winters. There are four distinct seasons. Both summer and winter are long, with hot, dry summers and cold, snowy winters separated by brief spring and fall transition periods. Spring is the wettest season, while summer is usually the driest. Large seasonal temperature variation

Runways

Designator Length Width Surface Rops
14/32 4117 61 PEM Yes/Yes
Airport map: 
Aerial View: 

SKYbrary Partners:

Safety knowledge contributed by: